Time;durP1;ratioP1;P1;durP2;ratioP2;P2;SDS_P1;SDS_P2;PMS_P1;PMS_P2;Temp;Humidity;BMP_temperature;BMP_pressure;BME280_temperature;BME280_humidity;BME280_pressure;Samples;Min_cycle;Max_cycle;Signal;HPM_P1;HPM_P2
2022/09/14 00:00:40;;;;;;;11.30;4.12;;;;;;;15.04;94.27;99861.28;5570215;32;34615;-66
2022/09/14 00:03:44;;;;;;;10.30;4.43;;;;;;;14.97;94.20;99857.78;5543942;32;33956;-66
2022/09/14 00:06:47;;;;;;;7.87;4.28;;;;;;;14.89;94.98;99855.34;5570003;32;34580;-66
2022/09/14 00:09:50;;;;;;;8.20;3.90;;;;;;;14.81;95.22;99855.59;5570030;32;34074;-66
2022/09/14 00:12:53;;;;;;;8.57;3.97;;;;;;;14.78;94.71;99854.97;5570078;32;34014;-66
2022/09/14 00:16:02;;;;;;;8.82;3.65;;;;;;;14.75;94.43;99846.56;5570049;32;34022;-66
2022/09/14 00:19:07;;;;;;;8.00;3.60;;;;;;;14.70;93.70;99841.84;5569977;32;34099;-66
2022/09/14 00:22:10;;;;;;;7.05;3.40;;;;;;;14.65;94.23;99843.47;5570017;32;33968;-66
2022/09/14 00:25:13;;;;;;;6.37;3.47;;;;;;;14.64;94.46;99842.66;5570129;32;34460;-66
2022/09/14 00:28:16;;;;;;;9.45;3.83;;;;;;;14.68;93.46;99832.38;5556330;32;34069;-66
2022/09/14 00:31:20;;;;;;;6.68;3.72;;;;;;;14.64;93.78;99831.97;5556217;32;34065;-66
2022/09/14 00:34:22;;;;;;;5.90;3.33;;;;;;;14.65;93.35;99822.94;5569952;32;34009;-65
2022/09/14 00:37:25;;;;;;;7.75;3.50;;;;;;;14.67;92.73;99820.88;5569913;32;33953;-66
2022/09/14 00:40:28;;;;;;;6.75;3.42;;;;;;;14.64;92.81;99821.31;5556181;32;33947;-66
2022/09/14 00:43:30;;;;;;;8.80;3.65;;;;;;;14.66;92.89;99819.25;5569789;32;34654;-66
2022/09/14 00:46:38;;;;;;;4.93;3.30;;;;;;;14.87;90.19;99822.69;5568905;32;33998;-65
2022/09/14 00:49:42;;;;;;;5.72;3.28;;;;;;;15.09;89.46;99824.91;5569674;32;33914;-66
2022/09/14 00:52:48;;;;;;;6.05;3.30;;;;;;;14.97;89.69;99823.06;5555947;32;33928;-66
2022/09/14 00:55:52;;;;;;;7.43;3.10;;;;;;;15.00;88.75;99825.34;5569556;32;33821;-66
2022/09/14 00:58:58;;;;;;;8.18;3.05;;;;;;;14.84;89.28;99829.28;5569597;32;33918;-65
2022/09/14 01:02:01;;;;;;;8.15;3.20;;;;;;;14.76;89.50;99830.31;5569550;32;33879;-66
2022/09/14 01:05:04;;;;;;;8.25;3.47;;;;;;;14.77;89.35;99831.13;5569446;32;33953;-66
2022/09/14 01:08:22;;;;;;;6.68;3.50;;;;;;;14.67;89.83;99828.06;5569198;31;33984;-66
2022/09/14 01:11:53;;;;;;;8.75;3.58;;;;;;;14.59;90.38;99825.63;5569386;32;35287;-66
2022/09/14 01:15:06;;;;;;;8.55;3.72;;;;;;;14.50;90.58;99825.00;5569384;32;34546;-65
2022/09/14 01:18:17;;;;;;;7.80;3.75;;;;;;;14.61;91.25;99824.41;5569293;32;34018;-65
2022/09/14 01:21:26;;;;;;;12.30;5.20;;;;;;;14.79;90.30;99818.41;5569210;32;33939;-65
2022/09/14 01:24:46;;;;;;;11.50;6.65;;;;;;;14.54;91.81;99820.06;5569180;32;33865;-68
2022/09/14 01:27:50;;;;;;;17.45;8.40;;;;;;;14.49;92.32;99812.69;5555505;32;34453;-66
2022/09/14 01:30:57;;;;;;;11.60;7.03;;;;;;;14.38;93.24;99807.19;5568915;32;34055;-66
2022/09/14 01:34:08;;;;;;;14.35;8.10;;;;;;;14.32;93.27;99811.44;5569452;32;34535;-66
2022/09/14 01:37:36;;;;;;;15.35;6.93;;;;;;;14.26;93.58;99796.25;5568956;32;33946;-66
2022/09/14 01:40:43;;;;;;;9.32;4.35;;;;;;;14.20;93.97;99787.22;5569008;32;33967;-65
2022/09/14 01:43:53;;;;;;;9.80;4.10;;;;;;;14.35;92.50;99795.00;5568832;32;34049;-66
2022/09/14 01:47:01;;;;;;;6.90;3.97;;;;;;;14.72;90.00;99797.03;5568773;32;35438;-65
2022/09/14 01:50:17;;;;;;;11.10;4.05;;;;;;;14.46;90.73;99799.78;5568747;32;33926;-66
2022/09/14 01:53:33;;;;;;;11.10;3.40;;;;;;;14.30;91.92;99798.31;5568673;32;34032;-66
2022/09/14 01:56:44;;;;;;;6.20;3.50;;;;;;;14.46;91.13;99801.63;5568663;32;34005;-65
2022/09/14 01:59:52;;;;;;;6.70;2.97;;;;;;;14.41;91.45;99780.06;5571256;32;34566;-66
2022/09/14 02:03:05;;;;;;;5.72;2.97;;;;;;;14.44;91.28;99782.31;5571218;32;34183;-65
2022/09/14 02:06:20;;;;;;;7.35;3.28;;;;;;;14.47;91.38;99781.91;5571089;32;34262;-66
2022/09/14 02:09:25;;;;;;;6.15;2.80;;;;;;;14.35;91.49;99771.00;5557370;32;34100;-65
2022/09/14 02:12:28;;;;;;;5.12;2.67;;;;;;;14.23;92.64;99772.66;5571466;32;34207;-65
2022/09/14 02:15:31;;;;;;;6.32;3.00;;;;;;;14.10;93.05;99776.12;5571447;32;33917;-65
2022/09/14 02:18:34;;;;;;;6.97;3.03;;;;;;;14.01;92.79;99769.38;5557455;32;35295;-65
2022/09/14 02:21:37;;;;;;;7.12;2.65;;;;;;;13.93;93.28;99762.41;5571106;32;34035;-65
2022/09/14 02:24:40;;;;;;;4.93;2.70;;;;;;;13.96;94.36;99761.16;5571032;32;34126;-65
2022/09/14 02:27:43;;;;;;;6.28;2.90;;;;;;;13.87;95.32;99747.22;5557349;32;33982;-65
2022/09/14 02:31:14;;;;;;;4.40;2.80;;;;;;;13.83;95.54;99751.31;5557243;32;34387;-65
2022/09/14 02:34:29;;;;;;;6.30;2.90;;;;;;;13.77;95.66;99749.47;5557629;32;34066;-65
2022/09/14 02:37:45;;;;;;;5.85;2.80;;;;;;;13.82;95.02;99746.19;5570971;32;33924;-65
2022/09/14 02:40:55;;;;;;;8.10;2.90;;;;;;;13.70;95.70;99753.16;5571010;32;34276;-65
2022/09/14 02:44:07;;;;;;;8.52;3.22;;;;;;;13.68;96.77;99739.19;5570800;32;33952;-65
2022/09/14 02:47:24;;;;;;;6.12;2.80;;;;;;;13.63;97.67;99731.81;5570842;32;33862;-65
2022/09/14 02:50:53;;;;;;;5.62;3.37;;;;;;;13.59;96.99;99737.75;5570711;32;34009;-65
2022/09/14 02:54:06;;;;;;;5.80;3.10;;;;;;;13.80;97.42;99724.22;5562484;32;34434;-65
2022/09/14 02:57:09;;;;;;;11.73;3.20;;;;;;;13.88;96.96;99737.38;5570923;32;35183;-65
2022/09/14 03:00:12;;;;;;;5.03;3.30;;;;;;;13.90;97.69;99736.13;5570647;32;33937;-65
2022/09/14 03:03:19;;;;;;;6.82;4.07;;;;;;;13.86;97.58;99740.22;5570509;32;34286;-65
2022/09/14 03:06:22;;;;;;;5.57;3.50;;;;;;;13.91;97.14;99736.94;5556773;32;34584;-65
2022/09/14 03:09:25;;;;;;;5.97;3.55;;;;;;;14.21;94.50;99726.69;5569992;31;33966;-65
2022/09/14 03:12:27;;;;;;;5.35;3.55;;;;;;;14.19;94.60;99732.22;5570580;32;33890;-65
2022/09/14 03:15:30;;;;;;;5.60;3.58;;;;;;;14.21;94.79;99708.84;5570621;32;33940;-65
2022/09/14 03:18:34;;;;;;;9.35;3.75;;;;;;;14.24;95.39;99719.09;5556547;32;32440;-65
2022/09/14 03:21:38;;;;;;;7.35;3.65;;;;;;;14.27;95.27;99715.19;5570553;32;34431;-64
2022/09/14 03:24:40;;;;;;;8.18;3.22;;;;;;;14.27;95.16;99721.34;5556474;32;34272;-65
2022/09/14 03:27:50;;;;;;;9.23;3.60;;;;;;;14.29;94.96;99721.94;5570433;32;34139;-65
2022/09/14 03:30:54;;;;;;;10.13;3.65;;;;;;;14.35;94.57;99723.78;5556532;32;32607;-65
2022/09/14 03:33:58;;;;;;;6.10;3.20;;;;;;;14.52;94.17;99726.87;5570278;32;34877;-65
2022/09/14 03:37:01;;;;;;;9.40;3.78;;;;;;;14.60;93.23;99723.97;5570707;32;34153;-65
2022/09/14 03:40:06;;;;;;;7.25;3.83;;;;;;;14.66;91.66;99727.66;5570292;32;34068;-65
2022/09/14 03:43:11;;;;;;;8.00;3.70;;;;;;;14.68;89.18;99707.72;5556624;32;35183;-65
2022/09/14 03:46:22;;;;;;;11.18;4.07;;;;;;;14.78;90.02;99715.28;5570162;32;33919;-66
2022/09/14 03:49:24;;;;;;;14.93;3.90;;;;;;;14.71;90.77;99715.31;5570305;32;33974;-65
2022/09/14 03:52:27;;;;;;;5.15;3.20;;;;;;;14.63;91.62;99712.88;5570706;32;33909;-65
2022/09/14 03:55:30;;;;;;;8.77;3.67;;;;;;;14.58;91.30;99728.69;5543257;32;34006;-65
2022/09/14 03:58:33;;;;;;;7.55;3.42;;;;;;;14.54;91.59;99721.31;5556460;32;33504;-65
2022/09/14 04:01:36;;;;;;;6.30;3.40;;;;;;;14.50;91.58;99728.09;5556492;32;34106;-65
2022/09/14 04:04:39;;;;;;;8.82;4.07;;;;;;;14.47;91.40;99725.88;5569762;32;34125;-65
2022/09/14 04:07:42;;;;;;;6.35;3.65;;;;;;;14.48;91.53;99722.97;5549886;32;210469;-66
2022/09/14 04:10:45;;;;;;;15.05;3.72;;;;;;;14.58;91.40;99714.53;5570452;32;34232;-66
2022/09/14 04:13:48;;;;;;;8.73;3.65;;;;;;;14.48;92.09;99727.47;5570095;32;35087;-66
2022/09/14 04:16:51;;;;;;;10.70;3.50;;;;;;;14.45;92.47;99720.72;5570153;32;34650;-66
2022/09/14 04:19:54;;;;;;;10.07;4.00;;;;;;;14.41;92.10;99713.34;5555305;32;34001;-66
2022/09/14 04:22:57;;;;;;;13.60;3.97;;;;;;;14.50;91.44;99709.41;5569854;32;34003;-66
2022/09/14 04:26:00;;;;;;;7.40;3.90;;;;;;;14.42;91.40;99699.81;5569824;32;33886;-65
2022/09/14 04:29:03;;;;;;;10.70;3.95;;;;;;;14.40;91.21;99685.00;5569875;32;33927;-67
2022/09/14 04:32:09;;;;;;;6.75;3.70;;;;;;;14.44;92.13;99688.91;5569839;32;34558;-66
2022/09/14 04:35:12;;;;;;;6.80;4.22;;;;;;;14.42;92.68;99682.97;5569753;32;34550;-66
2022/09/14 04:38:14;;;;;;;7.72;4.20;;;;;;;14.38;92.15;99682.53;5569432;32;33934;-66
2022/09/14 04:41:22;;;;;;;10.55;4.10;;;;;;;14.32;93.12;99686.03;5555576;32;34282;-67
2022/09/14 04:44:24;;;;;;;8.38;4.47;;;;;;;14.33;93.19;99688.47;5569494;32;33964;-66
2022/09/14 04:47:28;;;;;;;8.10;4.53;;;;;;;14.28;93.76;99690.94;5555992;32;33899;-65
2022/09/14 04:50:31;;;;;;;7.05;4.10;;;;;;;14.23;93.07;99688.09;5555938;32;34015;-66
2022/09/14 04:53:37;;;;;;;7.72;4.32;;;;;;;14.25;93.04;99688.72;5555624;32;32586;-65
2022/09/14 04:56:40;;;;;;;10.52;4.40;;;;;;;14.32;93.16;99678.03;5569490;32;33969;-66
2022/09/14 04:59:43;;;;;;;6.07;4.12;;;;;;;14.46;91.79;99676.19;5569407;32;33919;-66
2022/09/14 05:02:46;;;;;;;13.07;4.72;;;;;;;14.69;90.32;99674.66;5555397;32;34480;-66
2022/09/14 05:05:48;;;;;;;9.27;4.37;;;;;;;14.85;88.53;99664.53;5569154;32;34165;-66
2022/09/14 05:08:52;;;;;;;10.63;3.97;;;;;;;14.91;87.92;99671.69;5569157;31;33995;-66
2022/09/14 05:11:55;;;;;;;9.18;3.97;;;;;;;14.99;85.49;99680.28;5569228;32;33933;-66
2022/09/14 05:14:58;;;;;;;10.55;4.50;;;;;;;14.98;86.10;99677.81;5542377;32;32820;-66
2022/09/14 05:18:02;;;;;;;10.68;4.35;;;;;;;15.11;85.28;99685.75;5555498;32;34128;-66
2022/09/14 05:21:06;;;;;;;10.23;4.00;;;;;;;15.12;85.65;99690.88;5555705;32;33933;-66
2022/09/14 05:24:13;;;;;;;7.62;3.58;;;;;;;15.26;83.53;99688.13;5569336;32;34073;-66
2022/09/14 05:27:21;;;;;;;6.15;3.58;;;;;;;15.34;83.94;99699.41;5555775;32;35507;-66
2022/09/14 05:30:25;;;;;;;7.43;3.60;;;;;;;15.41;84.02;99697.50;5568820;32;34196;-66
2022/09/14 05:33:27;;;;;;;12.30;3.75;;;;;;;15.54;82.61;99694.75;5571147;32;34011;-66
2022/09/14 05:36:30;;;;;;;8.68;3.85;;;;;;;15.73;81.45;99693.00;5571212;32;34893;-66
2022/09/14 05:39:32;;;;;;;6.87;3.72;;;;;;;15.73;81.99;99679.63;5571075;32;34040;-66
2022/09/14 05:42:35;;;;;;;29.17;4.72;;;;;;;15.84;81.28;99659.34;5570697;32;33961;-66
2022/09/14 05:45:38;;;;;;;16.05;4.07;;;;;;;15.88;80.66;99652.53;5570800;32;34648;-66
2022/09/14 05:48:41;;;;;;;10.30;4.00;;;;;;;16.01;79.90;99649.75;5570669;32;34538;-66
2022/09/14 05:51:44;;;;;;;9.52;4.03;;;;;;;15.96;80.62;99669.12;5571010;32;34147;-67
2022/09/14 05:54:47;;;;;;;6.62;3.35;;;;;;;15.91;79.61;99662.81;5557372;32;34106;-66
2022/09/14 05:57:50;;;;;;;9.20;3.60;;;;;;;15.90;79.69;99675.34;5557299;32;33063;-66
2022/09/14 06:00:53;;;;;;;11.52;3.60;;;;;;;15.94;81.17;99675.72;5570795;32;34693;-65
2022/09/14 06:03:59;;;;;;;5.82;3.10;;;;;;;16.13;78.10;99684.59;5570787;32;34724;-65
2022/09/14 06:07:01;;;;;;;8.68;3.40;;;;;;;16.30;76.66;99689.19;5570483;32;35484;-66
2022/09/14 06:10:20;;;;;;;8.07;3.40;;;;;;;16.43;76.96;99696.25;5570794;32;34060;-65
2022/09/14 06:13:23;;;;;;;5.55;3.60;;;;;;;16.58;76.27;99690.53;5570628;32;35239;-66
2022/09/14 06:16:27;;;;;;;6.53;3.87;;;;;;;16.74;76.42;99692.66;5570260;32;34011;-66
2022/09/14 06:19:29;;;;;;;7.85;4.05;;;;;;;16.94;75.45;99677.94;5570637;32;34218;-66
2022/09/14 06:22:32;;;;;;;11.45;3.67;;;;;;;17.26;73.58;99673.19;5544176;32;33154;-66
2022/09/14 06:25:35;;;;;;;10.55;3.50;;;;;;;17.50;72.88;99668.72;5569969;32;34608;-66
2022/09/14 06:28:38;;;;;;;10.73;3.95;;;;;;;17.98;70.55;99679.31;5570610;32;34185;-67
2022/09/14 06:31:41;;;;;;;10.38;3.70;;;;;;;18.29;68.89;99688.87;5570541;32;34439;-66
2022/09/14 06:34:44;;;;;;;7.93;3.60;;;;;;;18.30;69.44;99678.97;5570089;32;33849;-66
2022/09/14 06:37:47;;;;;;;8.10;3.70;;;;;;;18.03;68.95;99662.50;5569821;32;34285;-66
2022/09/14 06:40:55;;;;;;;9.63;3.80;;;;;;;17.97;69.86;99671.47;5556419;32;33245;-67
2022/09/14 06:44:00;;;;;;;5.28;3.42;;;;;;;18.21;68.90;99678.47;5569634;32;34025;-66
2022/09/14 06:47:03;;;;;;;8.25;3.85;;;;;;;18.17;68.95;99683.50;5556496;32;32410;-67
2022/09/14 06:50:07;;;;;;;7.97;3.80;;;;;;;18.01;69.18;99702.19;5570327;32;34838;-66
2022/09/14 06:53:09;;;;;;;9.10;4.05;;;;;;;17.92;69.64;99700.88;5557166;32;34552;-66
2022/09/14 06:56:13;;;;;;;13.43;4.10;;;;;;;17.71;70.16;99697.72;5570560;32;34694;-66
2022/09/14 06:59:16;;;;;;;12.55;4.35;;;;;;;17.50;71.31;99706.25;5556868;32;32735;-67
2022/09/14 07:02:19;;;;;;;8.43;4.22;;;;;;;17.18;74.71;99689.63;5556438;32;33324;-67
2022/09/14 07:05:22;;;;;;;11.68;4.90;;;;;;;16.66;81.51;99684.91;5570707;32;34148;-66
2022/09/14 07:08:27;;;;;;;12.27;5.22;;;;;;;15.90;96.84;99687.91;5556339;32;33332;-67
2022/09/14 07:11:30;;;;;;;11.68;5.62;;;;;;;15.62;100.00;99681.16;5556471;32;32862;-69
2022/09/14 07:14:35;;;;;;;13.75;5.57;;;;;;;15.23;100.00;99674.19;5570689;32;34078;-69
2022/09/14 07:17:38;;;;;;;10.80;5.62;;;;;;;15.13;100.00;99676.50;5570534;32;34064;-68
2022/09/14 07:20:40;;;;;;;10.30;5.68;;;;;;;14.92;100.00;99681.31;5556755;32;32715;-68
2022/09/14 07:23:45;;;;;;;14.05;6.47;;;;;;;15.07;100.00;99689.88;5570689;32;34021;-67
2022/09/14 07:26:48;;;;;;;10.18;5.90;;;;;;;15.12;100.00;99677.53;5570275;32;34115;-68
2022/09/14 07:29:51;;;;;;;12.40;6.30;;;;;;;15.13;100.00;99684.53;5570328;32;34110;-68
2022/09/14 07:32:53;;;;;;;13.85;6.30;;;;;;;15.01;100.00;99702.25;5570412;32;33931;-68
2022/09/14 07:36:07;;;;;;;14.60;7.35;;;;;;;15.05;100.00;99697.31;5570479;32;33860;-69
2022/09/14 07:39:16;;;;;;;12.43;6.78;;;;;;;15.08;100.00;99691.53;5556544;32;35620;-69
2022/09/14 07:42:18;;;;;;;15.50;6.62;;;;;;;15.30;100.00;99673.34;5570107;32;33872;-68
2022/09/14 07:45:21;;;;;;;10.82;6.55;;;;;;;15.41;100.00;99669.94;5556632;32;32744;-68
2022/09/14 07:48:24;;;;;;;11.55;6.95;;;;;;;15.33;100.00;99681.72;5570162;32;34401;-68
2022/09/14 07:51:28;;;;;;;12.55;7.07;;;;;;;15.49;100.00;99678.53;5556773;32;34109;-68
2022/09/14 07:54:32;;;;;;;15.13;7.12;;;;;;;15.84;100.00;99678.06;5570117;32;35396;-68
2022/09/14 07:57:35;;;;;;;13.75;6.22;;;;;;;15.92;100.00;99681.31;5571051;32;34616;-67
2022/09/14 08:01:13;;;;;;;13.20;6.28;;;;;;;16.00;100.00;99672.19;5556935;32;34017;-67
2022/09/14 08:04:16;;;;;;;9.93;5.72;;;;;;;16.21;100.00;99668.28;5570452;32;34737;-67
2022/09/14 08:07:19;;;;;;;10.32;6.30;;;;;;;16.47;100.00;99682.19;5556118;32;34674;-68
2022/09/14 08:10:22;;;;;;;11.05;6.18;;;;;;;16.89;100.00;99680.47;5569742;32;35396;-68
2022/09/14 08:13:25;;;;;;;17.33;7.53;;;;;;;16.98;100.00;99664.13;5543102;32;33550;-68
2022/09/14 08:16:29;;;;;;;13.50;6.87;;;;;;;17.13;100.00;99659.16;5543409;32;33234;-68
2022/09/14 08:19:32;;;;;;;13.27;6.65;;;;;;;17.39;100.00;99648.03;5569857;32;33905;-67
2022/09/14 08:22:34;;;;;;;10.77;6.75;;;;;;;17.34;99.36;99640.69;5556305;32;35281;-68
2022/09/14 08:25:36;;;;;;;13.82;6.72;;;;;;;17.16;97.94;99643.44;5569709;32;34611;-67
2022/09/14 08:28:39;;;;;;;13.95;7.00;;;;;;;17.15;99.75;99657.06;5555568;32;33998;-68
2022/09/14 08:31:44;;;;;;;12.90;6.95;;;;;;;17.23;100.00;99651.41;5555818;32;32413;-68
2022/09/14 08:34:48;;;;;;;12.00;6.85;;;;;;;17.56;100.00;99657.06;5569782;32;34011;-67
2022/09/14 08:37:50;;;;;;;13.32;6.53;;;;;;;17.95;95.61;99658.31;5556243;32;33276;-67
2022/09/14 08:40:53;;;;;;;8.93;6.05;;;;;;;18.38;92.55;99652.56;5569690;32;34035;-68
2022/09/14 08:44:04;;;;;;;20.58;6.62;;;;;;;18.76;91.94;99646.66;5556005;32;34538;-68
2022/09/14 08:47:18;;;;;;;10.07;6.28;;;;;;;18.99;87.29;99645.75;5555435;32;33034;-68
2022/09/14 08:50:21;;;;;;;12.10;6.55;;;;;;;19.26;85.05;99640.63;5569768;32;33906;-68
2022/09/14 08:53:24;;;;;;;10.32;6.03;;;;;;;19.02;84.30;99635.34;5569995;32;34254;-67
2022/09/14 08:56:37;;;;;;;15.65;6.62;;;;;;;19.56;85.75;99637.66;5569549;32;34810;-67
2022/09/14 09:00:02;;;;;;;10.98;6.30;;;;;;;19.97;82.12;99623.75;5569378;32;34383;-67
2022/09/14 09:03:17;;;;;;;12.77;6.53;;;;;;;19.94;81.12;99629.66;5569534;32;33904;-67
2022/09/14 09:06:25;;;;;;;13.18;5.78;;;;;;;20.69;76.71;99645.22;5568545;32;34748;-67
2022/09/14 09:09:44;;;;;;;10.75;5.90;;;;;;;20.76;76.91;99638.59;5555378;32;33007;-68
2022/09/14 09:12:54;;;;;;;7.72;5.32;;;;;;;20.73;75.30;99639.06;5569113;32;34614;-68
2022/09/14 09:16:02;;;;;;;;;;;;;;;20.72;76.12;99642.81;5555853;32;33625;-66
2022/09/14 09:19:16;;;;;;;10.48;5.90;;;;;;;21.11;75.23;99630.03;5555457;32;34672;-67
2022/09/14 09:22:22;;;;;;;15.63;5.72;;;;;;;21.06;73.79;99635.37;5555067;32;33420;-67
2022/09/14 09:25:29;;;;;;;12.45;5.72;;;;;;;21.02;71.59;99646.94;5555097;32;34136;-67
2022/09/14 09:28:33;;;;;;;10.63;5.03;;;;;;;21.44;72.73;99661.44;5568944;32;34084;-66
2022/09/14 09:31:39;;;;;;;8.90;5.35;;;;;;;21.82;73.54;99662.28;5555314;32;32490;-66
2022/09/14 09:34:43;;;;;;;16.25;5.87;;;;;;;22.08;70.06;99670.34;5568771;32;34003;-67
2022/09/14 09:37:46;;;;;;;11.45;5.95;;;;;;;22.28;66.85;99675.06;5554634;32;32736;-66
2022/09/14 09:41:04;;;;;;;9.75;6.15;;;;;;;22.52;65.63;99678.97;5541988;32;32995;-66
2022/09/14 09:44:09;;;;;;;12.73;6.78;;;;;;;22.39;63.58;99692.16;5568692;32;34138;-67
2022/09/14 09:47:12;;;;;;;11.20;6.12;;;;;;;22.13;66.81;99693.88;5542209;32;33412;-68
2022/09/14 09:50:19;;;;;;;14.40;6.85;;;;;;;22.29;68.70;99692.09;5568735;32;33977;-68
2022/09/14 09:53:23;;;;;;;11.10;6.57;;;;;;;22.62;67.21;99683.63;5568478;32;34045;-67
2022/09/14 09:56:29;;;;;;;14.85;7.82;;;;;;;22.71;66.22;99686.66;5554381;32;32650;-68
2022/09/14 09:59:36;;;;;;;;;;;;;;;22.80;65.05;99685.09;5568879;32;34047;-67
2022/09/14 10:02:40;;;;;;;15.10;7.07;;;;;;;22.28;67.64;99685.03;5554427;32;34564;-66
2022/09/14 10:05:43;;;;;;;12.48;6.22;;;;;;;22.40;67.48;99682.97;5554676;32;35171;-67
2022/09/14 10:08:46;;;;;;;10.77;6.62;;;;;;;22.85;63.94;99683.19;5528228;32;33091;-66
2022/09/14 10:12:12;;;;;;;10.43;6.28;;;;;;;22.71;64.18;99679.34;5568426;32;33966;-68
2022/09/14 10:15:28;;;;;;;14.38;6.60;;;;;;;23.38;62.17;99682.00;5554318;32;33395;-68
2022/09/14 10:18:31;;;;;;;17.50;6.15;;;;;;;24.36;59.81;99694.47;5555119;32;33990;-68
2022/09/14 10:21:34;;;;;;;9.88;5.90;;;;;;;24.97;58.87;99690.53;5557167;32;32481;-68
2022/09/14 10:24:37;;;;;;;13.00;6.37;;;;;;;24.51;59.21;99695.25;5570708;32;34039;-67
2022/09/14 10:27:47;;;;;;;14.50;6.82;;;;;;;24.19;61.46;99678.53;5570915;32;34040;-67
2022/09/14 10:31:13;;;;;;;12.57;5.80;;;;;;;24.12;60.37;99675.25;5556949;32;32759;-67
2022/09/14 10:34:19;;;;;;;10.75;6.80;;;;;;;23.75;60.64;99670.16;5559046;32;34509;-68
2022/09/14 10:37:31;;;;;;;9.02;5.03;;;;;;;24.57;59.40;99671.66;5557028;32;34013;-67
2022/09/14 10:40:43;;;;;;;14.45;4.85;;;;;;;24.32;61.08;99661.69;5570720;32;33887;-67
2022/09/14 10:43:51;;;;;;;9.45;5.12;;;;;;;24.86;59.58;99650.91;5570803;32;35238;-68
2022/09/14 10:46:57;;;;;;;11.57;5.50;;;;;;;24.27;59.67;99656.28;5570594;32;34232;-68
2022/09/14 10:50:32;;;;;;;8.98;5.20;;;;;;;24.06;60.66;99657.41;5558078;32;35134;-68
2022/09/14 10:53:49;;;;;;;11.57;5.30;;;;;;;23.53;63.13;99650.66;5570073;32;34230;-67
2022/09/14 10:57:19;;;;;;;7.70;4.85;;;;;;;23.55;63.99;99656.59;5570495;32;34127;-67
2022/09/14 11:00:22;;;;;;;8.02;4.87;;;;;;;23.98;63.14;99656.03;5570718;32;34542;-67
2022/09/14 11:03:29;;;;;;;8.77;4.12;;;;;;;23.69;63.27;99661.22;5556957;32;34527;-67
2022/09/14 11:07:01;;;;;;;8.82;4.07;;;;;;;23.67;63.30;99657.16;5570159;32;34627;-67
2022/09/14 11:10:28;;;;;;;10.05;4.78;;;;;;;24.22;62.77;99645.47;5570780;32;35140;-66
2022/09/14 11:13:52;;;;;;;11.15;4.30;;;;;;;23.86;62.89;99657.41;5570344;32;34078;-66
2022/09/14 11:17:09;;;;;;;11.70;4.70;;;;;;;23.69;65.43;99652.28;5556582;32;32330;-68
2022/09/14 11:20:30;;;;;;;9.48;4.95;;;;;;;23.74;65.09;99644.13;5556395;32;33330;-67
2022/09/14 11:23:52;;;;;;;10.10;4.60;;;;;;;23.55;64.63;99638.47;5570144;32;34725;-66
2022/09/14 11:27:03;;;;;;;7.97;4.50;;;;;;;23.70;65.82;99630.34;5556106;32;34058;-66
2022/09/14 11:30:17;;;;;;;11.15;4.97;;;;;;;23.46;68.03;99633.84;5569556;32;34650;-68
2022/09/14 11:33:31;;;;;;;11.55;5.15;;;;;;;23.26;67.96;99643.56;5556833;32;34701;-67
2022/09/14 11:36:45;;;;;;;7.25;4.87;;;;;;;22.92;68.82;99634.28;5556210;32;34014;-66
2022/09/14 11:40:14;;;;;;;11.95;4.78;;;;;;;22.70;69.20;99625.53;5569996;32;34091;-67
2022/09/14 11:43:23;;;;;;;14.65;5.12;;;;;;;22.61;70.57;99630.63;5556170;32;34207;-67
2022/09/14 11:46:44;;;;;;;9.38;4.60;;;;;;;22.64;71.31;99621.19;5556102;32;34039;-67
2022/09/14 11:49:56;;;;;;;8.75;5.12;;;;;;;22.87;70.61;99615.31;5570047;32;33891;-67
2022/09/14 11:53:15;;;;;;;9.95;4.60;;;;;;;22.83;69.83;99620.47;5556115;32;34781;-67
2022/09/14 11:56:25;;;;;;;7.10;4.20;;;;;;;23.22;69.70;99614.59;5556163;32;33944;-66
2022/09/14 11:59:40;;;;;;;12.40;4.30;;;;;;;23.30;69.72;99600.50;5556198;32;32606;-67
2022/09/14 12:02:56;;;;;;;11.10;4.60;;;;;;;23.30;68.74;99611.34;5570172;32;34055;-67
2022/09/14 12:06:30;;;;;;;13.90;4.75;;;;;;;23.58;68.63;99605.41;5555712;32;32669;-67
2022/09/14 12:09:38;;;;;;;8.05;4.93;;;;;;;23.71;67.82;99615.72;5570479;31;34028;-68
2022/09/14 12:12:41;;;;;;;8.60;4.20;;;;;;;24.46;65.76;99608.50;5570101;32;34648;-68
2022/09/14 12:15:45;;;;;;;12.07;4.05;;;;;;;24.99;64.01;99604.19;5556496;32;33091;-68
2022/09/14 12:18:55;;;;;;;11.30;4.43;;;;;;;25.28;62.25;99600.75;5569885;32;34656;-68
2022/09/14 12:22:16;;;;;;;6.35;4.25;;;;;;;25.40;62.03;99606.63;5556317;32;32340;-68
2022/09/14 12:25:21;;;;;;;9.05;4.18;;;;;;;25.78;59.94;99591.38;5569802;32;34536;-67
2022/09/14 12:28:49;;;;;;;5.60;3.55;;;;;;;26.26;57.08;99584.09;5555896;32;32517;-67
2022/09/14 12:31:54;;;;;;;10.25;3.80;;;;;;;25.43;61.62;99587.06;5569790;32;33895;-67
2022/09/14 12:35:34;;;;;;;7.78;4.07;;;;;;;25.34;61.41;99583.31;5556440;32;32380;-68
2022/09/14 12:38:40;;;;;;;7.53;3.92;;;;;;;25.40;60.46;99584.91;5556093;32;32717;-68
2022/09/14 12:41:46;;;;;;;5.78;3.50;;;;;;;25.29;62.05;99586.91;5554941;32;32547;-68
2022/09/14 12:44:49;;;;;;;7.70;4.00;;;;;;;25.46;60.23;99583.78;5569695;32;34015;-68
2022/09/14 12:47:51;;;;;;;6.70;3.40;;;;;;;26.81;56.38;99572.50;5555639;32;32305;-68
2022/09/14 12:50:54;;;;;;;7.15;2.95;;;;;;;27.17;54.25;99569.25;5555467;32;32616;-68
2022/09/14 12:53:57;;;;;;;4.90;2.95;;;;;;;29.63;48.42;99567.22;5542616;32;33018;-67
2022/09/14 12:57:09;;;;;;;9.98;3.28;;;;;;;31.89;42.60;99555.16;5569148;32;34124;-68
2022/09/14 13:00:18;;;;;;;10.88;2.83;;;;;;;31.80;42.01;99554.38;5569091;32;34085;-69
2022/09/14 13:03:49;;;;;;;6.90;3.05;;;;;;;32.99;39.57;99532.06;5569112;32;34029;-68
2022/09/14 13:06:55;;;;;;;7.37;3.25;;;;;;;33.44;39.04;99523.88;5569209;32;34091;-68
2022/09/14 13:10:00;;;;;;;7.45;2.97;;;;;;;33.46;38.26;99527.09;5548451;32;32605;-67
2022/09/14 13:13:14;;;;;;;6.68;2.55;;;;;;;33.37;37.79;99523.63;5549528;32;33958;-67
2022/09/14 13:16:28;;;;;;;6.22;2.53;;;;;;;34.89;35.72;99536.06;5548783;32;32790;-68
2022/09/14 13:19:32;;;;;;;11.35;2.80;;;;;;;36.15;32.11;99520.53;5548856;32;33425;-68
2022/09/14 13:22:41;;;;;;;6.25;2.67;;;;;;;33.51;36.39;99528.81;5549371;32;34053;-67
2022/09/14 13:25:44;;;;;;;4.82;2.65;;;;;;;31.91;38.99;99519.94;5549621;32;33959;-68
2022/09/14 13:28:49;;;;;;;3.40;2.03;;;;;;;30.90;41.54;99522.56;5549358;32;34136;-68
2022/09/14 13:31:54;;;;;;;4.60;2.60;;;;;;;32.96;37.61;99524.50;5548577;32;32986;-67
2022/09/14 13:35:04;;;;;;;7.45;2.65;;;;;;;33.11;37.59;99520.31;5548043;32;33314;-68
2022/09/14 13:38:18;;;;;;;10.75;2.40;;;;;;;34.42;35.31;99528.31;5549428;32;34593;-67
2022/09/14 13:41:22;;;;;;;4.62;2.33;;;;;;;35.35;32.85;99540.12;5548392;32;32335;-67
2022/09/14 13:44:32;;;;;;;7.57;2.55;;;;;;;35.49;33.46;99529.47;5549521;32;34227;-69
2022/09/14 13:47:38;;;;;;;6.12;2.45;;;;;;;33.35;37.19;99528.69;5549082;32;34757;-69
2022/09/14 13:50:46;;;;;;;4.97;2.20;;;;;;;36.35;31.91;99524.16;5548957;32;33998;-68
2022/09/14 13:53:52;;;;;;;9.73;2.85;;;;;;;35.25;33.53;99530.41;5550227;32;33924;-67
2022/09/14 13:57:14;;;;;;;6.37;2.10;;;;;;;35.03;33.96;99530.94;5537595;32;33455;-69
2022/09/14 14:00:19;;;;;;;9.32;2.42;;;;;;;34.58;34.25;99514.63;5550005;32;33943;-69
2022/09/14 14:03:36;;;;;;;7.70;2.25;;;;;;;33.44;37.17;99514.81;5550478;32;32766;-68
2022/09/14 14:06:39;;;;;;;9.98;2.17;;;;;;;33.75;35.75;99511.56;5537683;32;32753;-69
2022/09/14 14:09:45;;;;;;;7.25;2.70;;;;;;;32.96;37.76;99509.94;5550170;32;32752;-69
2022/09/14 14:12:48;;;;;;;10.63;2.65;;;;;;;29.40;45.24;99493.78;5550468;32;32454;-68
2022/09/14 14:15:53;;;;;;;6.12;2.65;;;;;;;27.31;51.62;99490.31;5549919;32;33132;-68
2022/09/14 14:18:57;;;;;;;8.02;2.95;;;;;;;26.17;56.57;99471.62;5551201;32;34217;-68
2022/09/14 14:22:19;;;;;;;9.82;3.15;;;;;;;25.24;59.65;99467.47;5550066;32;34182;-68
2022/09/14 14:25:39;;;;;;;14.35;2.80;;;;;;;25.60;58.98;99476.13;5537168;32;32947;-67
2022/09/14 14:28:48;;;;;;;8.63;2.70;;;;;;;25.76;58.56;99472.12;5550565;32;34266;-67
2022/09/14 14:31:53;;;;;;;4.78;2.70;;;;;;;25.70;59.11;99475.19;5549839;32;33308;-67
2022/09/14 14:35:03;;;;;;;5.97;2.60;;;;;;;25.53;58.28;99479.12;5550519;32;35093;-68
2022/09/14 14:38:06;;;;;;;10.52;2.90;;;;;;;24.98;61.47;99457.97;5550491;32;33984;-67